Capitol Logistics 908

Operating for DHL



EDDP
Leipzig Halle Airport
Leipzig, DE
EDDK
Cologne Bonn Airport
Cologne, DE

Route Details

Aircraft Information
Group: European Fleet
Types: A30F,A31F,B738
Route Data
Demand: V
Distance: 195nm
Duration: 1h 14m
Recm'd Route: ORTAG Q230 WRB P12 ESADU T858 KOPAG
Origin Wx: EDDP 270520Z 25013KT 3800 -RADZ FEW022 SCT037 BKN043 14/13 Q1016 TEMPO 28020G35KT 4000 SHRA BKN020CB
Dest. Wx: EDDK 270520Z AUTO 26015KT 9999 -RADZ OVC014 14/11 Q1020 TEMPO 4000 RADZ BKN012
Notes:

Financial History
Total Freight: 287,829lbs
Average Load: 57,566lbs/flt
Fuel Used: 48,747lbs
Avg. Fuel Used: 9,749lbs/flt
Fuel Expense: $26,000
Avg. Fuel Expense: $5,200
Avg. Fuel Cost: $0.55/lbs
Total Gross Income: $608,934
Pilot Pay: $1,255
Total Expenses: $83,536
Total Revenue: $493,264
Average Revenue: $121,786.88